sensor_id;sensor_type;location;lat;lon;timestamp;P1;durP1;ratioP1;P2;durP2;ratioP2
3189;SDS011;1606;51.946;10.558;2022-08-07T00:00:24;6.90;;;2.00;;
3189;SDS011;1606;51.946;10.558;2022-08-07T00:02:53;6.93;;;1.63;;
3189;SDS011;1606;51.946;10.558;2022-08-07T00:05:22;9.27;;;2.27;;
3189;SDS011;1606;51.946;10.558;2022-08-07T00:07:51;7.97;;;1.80;;
3189;SDS011;1606;51.946;10.558;2022-08-07T00:10:25;8.93;;;1.53;;
3189;SDS011;1606;51.946;10.558;2022-08-07T00:12:56;8.50;;;1.97;;
3189;SDS011;1606;51.946;10.558;2022-08-07T00:15:44;6.50;;;1.70;;
3189;SDS011;1606;51.946;10.558;2022-08-07T00:18:17;7.90;;;1.63;;
3189;SDS011;1606;51.946;10.558;2022-08-07T00:20:50;6.83;;;1.80;;
3189;SDS011;1606;51.946;10.558;2022-08-07T00:23:19;6.90;;;1.40;;
3189;SDS011;1606;51.946;10.558;2022-08-07T00:25:48;6.27;;;1.50;;
3189;SDS011;1606;51.946;10.558;2022-08-07T00:28:27;9.25;;;1.50;;
3189;SDS011;1606;51.946;10.558;2022-08-07T00:31:01;11.70;;;1.67;;
3189;SDS011;1606;51.946;10.558;2022-08-07T00:33:31;6.40;;;1.57;;
3189;SDS011;1606;51.946;10.558;2022-08-07T00:36:01;6.70;;;1.50;;
3189;SDS011;1606;51.946;10.558;2022-08-07T00:38:30;6.77;;;1.70;;
3189;SDS011;1606;51.946;10.558;2022-08-07T00:40:59;7.77;;;1.37;;
3189;SDS011;1606;51.946;10.558;2022-08-07T00:43:27;7.43;;;1.63;;
3189;SDS011;1606;51.946;10.558;2022-08-07T00:46:16;7.53;;;1.50;;
3189;SDS011;1606;51.946;10.558;2022-08-07T00:48:45;6.60;;;1.60;;
3189;SDS011;1606;51.946;10.558;2022-08-07T00:51:17;7.07;;;1.50;;
3189;SDS011;1606;51.946;10.558;2022-08-07T00:53:46;7.10;;;1.30;;
3189;SDS011;1606;51.946;10.558;2022-08-07T00:56:21;6.30;;;1.60;;
3189;SDS011;1606;51.946;10.558;2022-08-07T00:58:55;8.70;;;1.50;;
3189;SDS011;1606;51.946;10.558;2022-08-07T01:01:25;6.67;;;1.63;;
3189;SDS011;1606;51.946;10.558;2022-08-07T01:04:06;14.23;;;2.00;;
3189;SDS011;1606;51.946;10.558;2022-08-07T01:06:35;8.87;;;1.57;;
3189;SDS011;1606;51.946;10.558;2022-08-07T01:09:04;7.20;;;1.70;;
3189;SDS011;1606;51.946;10.558;2022-08-07T01:11:33;8.70;;;1.60;;
3189;SDS011;1606;51.946;10.558;2022-08-07T01:14:21;7.67;;;1.40;;
3189;SDS011;1606;51.946;10.558;2022-08-07T01:16:55;6.83;;;1.60;;
3189;SDS011;1606;51.946;10.558;2022-08-07T01:19:25;6.50;;;1.50;;
3189;SDS011;1606;51.946;10.558;2022-08-07T01:21:59;7.90;;;1.30;;
3189;SDS011;1606;51.946;10.558;2022-08-07T01:24:28;6.33;;;1.43;;
3189;SDS011;1606;51.946;10.558;2022-08-07T01:26:56;6.40;;;1.20;;
3189;SDS011;1606;51.946;10.558;2022-08-07T01:29:28;7.13;;;1.60;;
3189;SDS011;1606;51.946;10.558;2022-08-07T01:31:59;6.90;;;1.37;;
3189;SDS011;1606;51.946;10.558;2022-08-07T01:34:37;6.10;;;1.23;;
3189;SDS011;1606;51.946;10.558;2022-08-07T01:37:13;6.67;;;1.77;;
3189;SDS011;1606;51.946;10.558;2022-08-07T01:39:44;7.33;;;1.90;;
3189;SDS011;1606;51.946;10.558;2022-08-07T01:42:13;6.03;;;1.30;;
3189;SDS011;1606;51.946;10.558;2022-08-07T01:45:02;7.93;;;1.63;;
3189;SDS011;1606;51.946;10.558;2022-08-07T01:47:41;10.40;;;1.70;;
3189;SDS011;1606;51.946;10.558;2022-08-07T01:50:29;6.20;;;1.37;;
3189;SDS011;1606;51.946;10.558;2022-08-07T01:52:59;9.03;;;1.50;;
3189;SDS011;1606;51.946;10.558;2022-08-07T01:55:35;6.90;;;1.83;;
3189;SDS011;1606;51.946;10.558;2022-08-07T01:58:06;7.23;;;1.90;;
3189;SDS011;1606;51.946;10.558;2022-08-07T02:00:56;6.97;;;1.60;;
3189;SDS011;1606;51.946;10.558;2022-08-07T02:03:46;6.30;;;1.80;;
3189;SDS011;1606;51.946;10.558;2022-08-07T02:06:18;7.17;;;1.87;;
3189;SDS011;1606;51.946;10.558;2022-08-07T02:08:59;6.63;;;2.03;;
3189;SDS011;1606;51.946;10.558;2022-08-07T02:11:31;7.00;;;1.80;;
3189;SDS011;1606;51.946;10.558;2022-08-07T02:14:20;6.90;;;1.70;;
3189;SDS011;1606;51.946;10.558;2022-08-07T02:17:06;6.57;;;1.93;;
3189;SDS011;1606;51.946;10.558;2022-08-07T02:19:36;6.53;;;1.67;;
3189;SDS011;1606;51.946;10.558;2022-08-07T02:22:27;6.40;;;1.90;;
3189;SDS011;1606;51.946;10.558;2022-08-07T02:24:58;6.30;;;1.50;;
3189;SDS011;1606;51.946;10.558;2022-08-07T02:27:32;6.37;;;1.50;;
3189;SDS011;1606;51.946;10.558;2022-08-07T02:30:06;6.90;;;1.90;;
3189;SDS011;1606;51.946;10.558;2022-08-07T02:32:35;6.60;;;1.60;;
3189;SDS011;1606;51.946;10.558;2022-08-07T02:35:23;6.40;;;1.60;;
3189;SDS011;1606;51.946;10.558;2022-08-07T02:38:12;7.20;;;1.77;;
3189;SDS011;1606;51.946;10.558;2022-08-07T02:40:49;6.17;;;1.50;;
3189;SDS011;1606;51.946;10.558;2022-08-07T02:43:21;7.13;;;2.03;;
3189;SDS011;1606;51.946;10.558;2022-08-07T02:45:52;6.77;;;1.50;;
3189;SDS011;1606;51.946;10.558;2022-08-07T02:48:24;10.30;;;2.10;;
3189;SDS011;1606;51.946;10.558;2022-08-07T02:50:53;6.93;;;1.90;;
3189;SDS011;1606;51.946;10.558;2022-08-07T02:53:23;7.60;;;2.43;;
3189;SDS011;1606;51.946;10.558;2022-08-07T02:55:56;6.90;;;1.73;;
3189;SDS011;1606;51.946;10.558;2022-08-07T02:58:38;8.90;;;1.60;;
3189;SDS011;1606;51.946;10.558;2022-08-07T03:01:13;6.27;;;1.37;;
3189;SDS011;1606;51.946;10.558;2022-08-07T03:04:01;7.00;;;1.43;;
3189;SDS011;1606;51.946;10.558;2022-08-07T03:06:32;8.87;;;1.80;;
3189;SDS011;1606;51.946;10.558;2022-08-07T03:09:04;8.57;;;1.50;;
3189;SDS011;1606;51.946;10.558;2022-08-07T03:11:38;6.10;;;1.40;;
3189;SDS011;1606;51.946;10.558;2022-08-07T03:14:23;6.10;;;1.27;;
3189;SDS011;1606;51.946;10.558;2022-08-07T03:16:53;6.60;;;1.80;;
3189;SDS011;1606;51.946;10.558;2022-08-07T03:19:21;6.50;;;1.60;;
3189;SDS011;1606;51.946;10.558;2022-08-07T03:22:02;6.87;;;1.63;;
3189;SDS011;1606;51.946;10.558;2022-08-07T03:24:32;6.73;;;1.67;;
3189;SDS011;1606;51.946;10.558;2022-08-07T03:27:03;7.60;;;1.50;;
3189;SDS011;1606;51.946;10.558;2022-08-07T03:29:36;6.50;;;1.30;;
3189;SDS011;1606;51.946;10.558;2022-08-07T03:32:15;7.32;;;1.70;;
3189;SDS011;1606;51.946;10.558;2022-08-07T03:34:45;7.70;;;1.63;;
3189;SDS011;1606;51.946;10.558;2022-08-07T03:37:36;10.77;;;2.33;;
3189;SDS011;1606;51.946;10.558;2022-08-07T03:40:18;7.50;;;1.60;;
3189;SDS011;1606;51.946;10.558;2022-08-07T03:42:48;7.30;;;1.73;;
3189;SDS011;1606;51.946;10.558;2022-08-07T03:45:17;6.60;;;1.93;;
3189;SDS011;1606;51.946;10.558;2022-08-07T03:47:56;6.40;;;1.87;;
3189;SDS011;1606;51.946;10.558;2022-08-07T03:50:24;6.40;;;1.80;;
3189;SDS011;1606;51.946;10.558;2022-08-07T03:52:55;6.80;;;2.00;;
3189;SDS011;1606;51.946;10.558;2022-08-07T03:55:24;6.50;;;1.90;;
3189;SDS011;1606;51.946;10.558;2022-08-07T03:58:15;7.33;;;1.77;;
3189;SDS011;1606;51.946;10.558;2022-08-07T04:01:04;7.00;;;2.00;;
3189;SDS011;1606;51.946;10.558;2022-08-07T04:03:36;7.50;;;1.60;;
3189;SDS011;1606;51.946;10.558;2022-08-07T04:06:20;6.40;;;1.70;;
3189;SDS011;1606;51.946;10.558;2022-08-07T04:09:04;8.63;;;2.03;;
3189;SDS011;1606;51.946;10.558;2022-08-07T04:11:41;6.60;;;1.90;;
3189;SDS011;1606;51.946;10.558;2022-08-07T04:14:31;9.10;;;1.67;;
3189;SDS011;1606;51.946;10.558;2022-08-07T04:17:08;7.03;;;2.00;;
3189;SDS011;1606;51.946;10.558;2022-08-07T04:19:46;6.53;;;1.70;;
3189;SDS011;1606;51.946;10.558;2022-08-07T04:22:19;6.60;;;1.80;;
3189;SDS011;1606;51.946;10.558;2022-08-07T04:24:55;6.77;;;1.77;;
3189;SDS011;1606;51.946;10.558;2022-08-07T04:27:23;11.47;;;2.10;;
3189;SDS011;1606;51.946;10.558;2022-08-07T04:29:53;8.10;;;2.07;;
3189;SDS011;1606;51.946;10.558;2022-08-07T04:32:29;7.03;;;1.70;;
3189;SDS011;1606;51.946;10.558;2022-08-07T04:35:00;6.20;;;1.47;;
3189;SDS011;1606;51.946;10.558;2022-08-07T04:37:31;7.27;;;2.23;;
3189;SDS011;1606;51.946;10.558;2022-08-07T04:40:20;7.13;;;1.77;;
3189;SDS011;1606;51.946;10.558;2022-08-07T04:42:55;6.83;;;1.73;;
3189;SDS011;1606;51.946;10.558;2022-08-07T04:45:33;7.63;;;1.70;;
3189;SDS011;1606;51.946;10.558;2022-08-07T04:48:27;8.17;;;1.97;;
3189;SDS011;1606;51.946;10.558;2022-08-07T04:51:03;6.60;;;2.00;;
3189;SDS011;1606;51.946;10.558;2022-08-07T04:53:37;9.30;;;2.07;;
3189;SDS011;1606;51.946;10.558;2022-08-07T04:56:31;7.70;;;1.90;;
3189;SDS011;1606;51.946;10.558;2022-08-07T04:59:29;8.40;;;2.33;;
3189;SDS011;1606;51.946;10.558;2022-08-07T05:02:23;6.80;;;2.00;;
3189;SDS011;1606;51.946;10.558;2022-08-07T05:04:56;6.40;;;2.03;;
3189;SDS011;1606;51.946;10.558;2022-08-07T05:07:51;7.30;;;2.10;;
3189;SDS011;1606;51.946;10.558;2022-08-07T05:10:27;7.33;;;1.90;;
3189;SDS011;1606;51.946;10.558;2022-08-07T05:12:58;6.80;;;1.80;;
3189;SDS011;1606;51.946;10.558;2022-08-07T05:15:50;7.33;;;2.00;;
3189;SDS011;1606;51.946;10.558;2022-08-07T05:18:21;9.43;;;1.80;;
3189;SDS011;1606;51.946;10.558;2022-08-07T05:20:55;8.63;;;1.90;;
3189;SDS011;1606;51.946;10.558;2022-08-07T05:23:26;7.60;;;2.13;;
3189;SDS011;1606;51.946;10.558;2022-08-07T05:26:01;6.40;;;1.87;;
3189;SDS011;1606;51.946;10.558;2022-08-07T05:28:43;6.93;;;2.27;;
3189;SDS011;1606;51.946;10.558;2022-08-07T05:31:17;8.10;;;2.20;;
3189;SDS011;1606;51.946;10.558;2022-08-07T05:33:47;11.07;;;2.53;;
3189;SDS011;1606;51.946;10.558;2022-08-07T05:36:30;6.80;;;1.83;;
3189;SDS011;1606;51.946;10.558;2022-08-07T05:39:00;9.40;;;1.87;;
3189;SDS011;1606;51.946;10.558;2022-08-07T05:41:49;6.53;;;1.90;;
3189;SDS011;1606;51.946;10.558;2022-08-07T05:44:29;7.10;;;2.27;;
3189;SDS011;1606;51.946;10.558;2022-08-07T05:46:59;7.23;;;2.23;;
3189;SDS011;1606;51.946;10.558;2022-08-07T05:49:45;6.93;;;2.10;;
3189;SDS011;1606;51.946;10.558;2022-08-07T05:52:15;8.80;;;2.40;;
3189;SDS011;1606;51.946;10.558;2022-08-07T05:54:45;8.97;;;1.80;;
3189;SDS011;1606;51.946;10.558;2022-08-07T05:57:21;8.60;;;1.90;;
3189;SDS011;1606;51.946;10.558;2022-08-07T05:59:55;6.73;;;1.97;;
3189;SDS011;1606;51.946;10.558;2022-08-07T06:02:27;7.80;;;2.10;;
3189;SDS011;1606;51.946;10.558;2022-08-07T06:04:58;6.70;;;1.97;;
3189;SDS011;1606;51.946;10.558;2022-08-07T06:07:31;6.43;;;1.60;;
3189;SDS011;1606;51.946;10.558;2022-08-07T06:10:19;7.97;;;1.90;;
3189;SDS011;1606;51.946;10.558;2022-08-07T06:12:47;7.80;;;2.20;;
3189;SDS011;1606;51.946;10.558;2022-08-07T06:15:16;6.77;;;1.70;;
3189;SDS011;1606;51.946;10.558;2022-08-07T06:17:46;8.00;;;2.00;;
3189;SDS011;1606;51.946;10.558;2022-08-07T06:20:22;7.00;;;1.90;;
3189;SDS011;1606;51.946;10.558;2022-08-07T06:23:10;6.70;;;2.10;;
3189;SDS011;1606;51.946;10.558;2022-08-07T06:25:59;8.03;;;2.47;;
3189;SDS011;1606;51.946;10.558;2022-08-07T06:28:28;6.80;;;1.80;;
3189;SDS011;1606;51.946;10.558;2022-08-07T06:30:56;7.03;;;1.93;;
3189;SDS011;1606;51.946;10.558;2022-08-07T06:33:25;6.73;;;2.03;;
3189;SDS011;1606;51.946;10.558;2022-08-07T06:35:59;8.70;;;1.97;;
3189;SDS011;1606;51.946;10.558;2022-08-07T06:38:39;7.20;;;1.80;;
3189;SDS011;1606;51.946;10.558;2022-08-07T06:41:29;7.90;;;1.97;;
3189;SDS011;1606;51.946;10.558;2022-08-07T06:44:19;8.50;;;2.17;;
3189;SDS011;1606;51.946;10.558;2022-08-07T06:46:49;6.93;;;2.03;;
3189;SDS011;1606;51.946;10.558;2022-08-07T06:49:37;6.30;;;1.60;;
3189;SDS011;1606;51.946;10.558;2022-08-07T06:52:25;6.77;;;1.67;;
3189;SDS011;1606;51.946;10.558;2022-08-07T06:55:02;7.00;;;1.43;;
3189;SDS011;1606;51.946;10.558;2022-08-07T06:57:52;5.60;;;1.23;;
3189;SDS011;1606;51.946;10.558;2022-08-07T07:00:25;8.53;;;1.70;;
3189;SDS011;1606;51.946;10.558;2022-08-07T07:02:55;5.87;;;1.40;;
3189;SDS011;1606;51.946;10.558;2022-08-07T07:05:34;6.87;;;1.33;;
3189;SDS011;1606;51.946;10.558;2022-08-07T07:08:27;6.63;;;1.73;;
3189;SDS011;1606;51.946;10.558;2022-08-07T07:10:58;7.10;;;1.90;;
3189;SDS011;1606;51.946;10.558;2022-08-07T07:13:48;6.93;;;1.50;;
3189;SDS011;1606;51.946;10.558;2022-08-07T07:16:26;6.33;;;1.73;;
3189;SDS011;1606;51.946;10.558;2022-08-07T07:19:00;9.03;;;2.43;;
3189;SDS011;1606;51.946;10.558;2022-08-07T07:21:50;7.17;;;1.60;;
3189;SDS011;1606;51.946;10.558;2022-08-07T07:24:39;6.83;;;1.90;;
3189;SDS011;1606;51.946;10.558;2022-08-07T07:27:29;6.90;;;2.10;;
3189;SDS011;1606;51.946;10.558;2022-08-07T07:30:21;8.00;;;2.47;;
3189;SDS011;1606;51.946;10.558;2022-08-07T07:33:04;7.00;;;1.70;;
3189;SDS011;1606;51.946;10.558;2022-08-07T07:35:36;7.43;;;2.00;;
3189;SDS011;1606;51.946;10.558;2022-08-07T07:38:27;7.10;;;1.40;;
3189;SDS011;1606;51.946;10.558;2022-08-07T07:40:59;9.60;;;1.50;;
3189;SDS011;1606;51.946;10.558;2022-08-07T07:43:33;7.00;;;1.77;;
3189;SDS011;1606;51.946;10.558;2022-08-07T07:46:26;7.53;;;1.90;;
3189;SDS011;1606;51.946;10.558;2022-08-07T07:49:16;6.37;;;1.57;;
3189;SDS011;1606;51.946;10.558;2022-08-07T07:52:06;8.00;;;1.77;;
3189;SDS011;1606;51.946;10.558;2022-08-07T07:54:36;7.00;;;1.70;;
3189;SDS011;1606;51.946;10.558;2022-08-07T07:57:17;6.30;;;1.53;;
3189;SDS011;1606;51.946;10.558;2022-08-07T08:00:07;8.63;;;1.70;;
3189;SDS011;1606;51.946;10.558;2022-08-07T08:02:36;7.47;;;1.90;;
3189;SDS011;1606;51.946;10.558;2022-08-07T08:05:27;6.47;;;1.93;;
3189;SDS011;1606;51.946;10.558;2022-08-07T08:08:15;8.80;;;2.50;;
3189;SDS011;1606;51.946;10.558;2022-08-07T08:11:02;7.30;;;1.33;;
3189;SDS011;1606;51.946;10.558;2022-08-07T08:13:36;6.40;;;1.40;;
3189;SDS011;1606;51.946;10.558;2022-08-07T08:16:21;8.30;;;1.13;;
3189;SDS011;1606;51.946;10.558;2022-08-07T08:18:55;6.30;;;1.20;;
3189;SDS011;1606;51.946;10.558;2022-08-07T08:21:25;6.37;;;1.10;;
3189;SDS011;1606;51.946;10.558;2022-08-07T08:24:30;6.00;;;1.00;;
3189;SDS011;1606;51.946;10.558;2022-08-07T08:27:40;5.77;;;1.00;;
3189;SDS011;1606;51.946;10.558;2022-08-07T08:30:24;5.00;;;0.80;;
3189;SDS011;1606;51.946;10.558;2022-08-07T08:32:56;5.10;;;0.80;;
3189;SDS011;1606;51.946;10.558;2022-08-07T08:35:27;5.90;;;1.60;;
3189;SDS011;1606;51.946;10.558;2022-08-07T08:38:04;5.37;;;0.80;;
3189;SDS011;1606;51.946;10.558;2022-08-07T08:40:35;5.73;;;1.10;;
3189;SDS011;1606;51.946;10.558;2022-08-07T08:43:13;5.37;;;0.70;;
3189;SDS011;1606;51.946;10.558;2022-08-07T08:46:00;5.30;;;0.90;;
3189;SDS011;1606;51.946;10.558;2022-08-07T08:48:34;5.33;;;1.00;;
3189;SDS011;1606;51.946;10.558;2022-08-07T08:51:11;6.43;;;1.00;;
3189;SDS011;1606;51.946;10.558;2022-08-07T08:53:55;6.03;;;0.80;;
3189;SDS011;1606;51.946;10.558;2022-08-07T08:56:29;5.70;;;1.00;;
3189;SDS011;1606;51.946;10.558;2022-08-07T08:59:14;6.70;;;0.80;;
3189;SDS011;1606;51.946;10.558;2022-08-07T09:01:55;6.70;;;0.90;;
3189;SDS011;1606;51.946;10.558;2022-08-07T09:04:35;5.50;;;0.83;;
3189;SDS011;1606;51.946;10.558;2022-08-07T09:07:13;5.23;;;0.80;;
3189;SDS011;1606;51.946;10.558;2022-08-07T09:09:54;5.20;;;0.77;;
3189;SDS011;1606;51.946;10.558;2022-08-07T09:12:36;6.90;;;0.80;;
3189;SDS011;1606;51.946;10.558;2022-08-07T09:15:30;6.40;;;0.77;;
3189;SDS011;1606;51.946;10.558;2022-08-07T09:18:31;5.30;;;0.97;;
3189;SDS011;1606;51.946;10.558;2022-08-07T09:21:26;5.70;;;0.80;;
3189;SDS011;1606;51.946;10.558;2022-08-07T09:24:25;5.00;;;0.80;;
3189;SDS011;1606;51.946;10.558;2022-08-07T09:27:23;6.50;;;0.97;;
3189;SDS011;1606;51.946;10.558;2022-08-07T09:29:59;4.80;;;0.80;;
3189;SDS011;1606;51.946;10.558;2022-08-07T09:32:40;5.53;;;0.80;;
3189;SDS011;1606;51.946;10.558;2022-08-07T09:35:27;5.10;;;0.60;;
3189;SDS011;1606;51.946;10.558;2022-08-07T09:38:24;5.20;;;0.90;;
3189;SDS011;1606;51.946;10.558;2022-08-07T09:41:03;8.10;;;1.30;;
3189;SDS011;1606;51.946;10.558;2022-08-07T09:43:42;5.80;;;1.00;;
3189;SDS011;1606;51.946;10.558;2022-08-07T09:46:37;5.20;;;0.87;;
3189;SDS011;1606;51.946;10.558;2022-08-07T09:49:39;5.57;;;0.80;;
3189;SDS011;1606;51.946;10.558;2022-08-07T09:52:32;5.20;;;0.80;;
3189;SDS011;1606;51.946;10.558;2022-08-07T09:55:07;5.70;;;1.10;;
3189;SDS011;1606;51.946;10.558;2022-08-07T10:01:10;5.30;;;0.97;;
3189;SDS011;1606;51.946;10.558;2022-08-07T10:04:24;5.83;;;0.83;;
3189;SDS011;1606;51.946;10.558;2022-08-07T10:07:06;6.90;;;1.03;;
3189;SDS011;1606;51.946;10.558;2022-08-07T10:10:12;5.90;;;0.90;;
3189;SDS011;1606;51.946;10.558;2022-08-07T10:12:58;5.20;;;0.93;;
3189;SDS011;1606;51.946;10.558;2022-08-07T10:16:03;5.10;;;0.60;;
3189;SDS011;1606;51.946;10.558;2022-08-07T10:18:50;5.30;;;0.73;;
3189;SDS011;1606;51.946;10.558;2022-08-07T10:21:28;6.10;;;1.00;;
3189;SDS011;1606;51.946;10.558;2022-08-07T10:27:39;5.20;;;0.73;;
3189;SDS011;1606;51.946;10.558;2022-08-07T10:30:17;5.03;;;0.93;;
3189;SDS011;1606;51.946;10.558;2022-08-07T10:32:55;5.27;;;0.70;;
3189;SDS011;1606;51.946;10.558;2022-08-07T10:35:43;5.23;;;0.73;;
3189;SDS011;1606;51.946;10.558;2022-08-07T10:38:37;5.80;;;0.93;;
3189;SDS011;1606;51.946;10.558;2022-08-07T10:41:18;5.40;;;0.83;;
3189;SDS011;1606;51.946;10.558;2022-08-07T10:44:16;5.17;;;0.77;;
3189;SDS011;1606;51.946;10.558;2022-08-07T10:47:04;5.20;;;0.80;;
3189;SDS011;1606;51.946;10.558;2022-08-07T10:49:54;6.70;;;0.83;;
3189;SDS011;1606;51.946;10.558;2022-08-07T10:52:32;5.73;;;1.00;;
3189;SDS011;1606;51.946;10.558;2022-08-07T10:55:17;5.00;;;0.80;;
3189;SDS011;1606;51.946;10.558;2022-08-07T10:58:08;5.30;;;0.90;;
3189;SDS011;1606;51.946;10.558;2022-08-07T11:01:02;5.10;;;1.00;;
3189;SDS011;1606;51.946;10.558;2022-08-07T11:03:41;6.17;;;0.80;;
3189;SDS011;1606;51.946;10.558;2022-08-07T11:06:25;5.20;;;0.83;;
3189;SDS011;1606;51.946;10.558;2022-08-07T11:08:58;7.10;;;1.23;;
3189;SDS011;1606;51.946;10.558;2022-08-07T11:11:38;6.30;;;0.83;;
3189;SDS011;1606;51.946;10.558;2022-08-07T11:14:19;5.20;;;0.80;;
3189;SDS011;1606;51.946;10.558;2022-08-07T11:17:12;5.00;;;0.80;;
3189;SDS011;1606;51.946;10.558;2022-08-07T11:19:49;5.83;;;0.80;;
3189;SDS011;1606;51.946;10.558;2022-08-07T11:22:22;5.53;;;0.93;;
3189;SDS011;1606;51.946;10.558;2022-08-07T11:25:12;5.77;;;0.90;;
3189;SDS011;1606;51.946;10.558;2022-08-07T11:27:47;5.03;;;0.73;;
3189;SDS011;1606;51.946;10.558;2022-08-07T11:30:32;5.20;;;0.90;;
3189;SDS011;1606;51.946;10.558;2022-08-07T11:33:10;6.10;;;1.03;;
3189;SDS011;1606;51.946;10.558;2022-08-07T11:36:11;6.00;;;0.90;;
3189;SDS011;1606;51.946;10.558;2022-08-07T11:38:57;5.93;;;0.90;;
3189;SDS011;1606;51.946;10.558;2022-08-07T11:41:34;7.70;;;1.00;;
3189;SDS011;1606;51.946;10.558;2022-08-07T11:44:31;5.50;;;1.37;;
3189;SDS011;1606;51.946;10.558;2022-08-07T11:47:35;5.20;;;0.90;;
3189;SDS011;1606;51.946;10.558;2022-08-07T11:50:34;6.40;;;1.00;;
3189;SDS011;1606;51.946;10.558;2022-08-07T11:53:26;6.23;;;0.90;;
3189;SDS011;1606;51.946;10.558;2022-08-07T11:56:26;6.17;;;1.10;;
3189;SDS011;1606;51.946;10.558;2022-08-07T11:59:08;6.30;;;0.80;;
3189;SDS011;1606;51.946;10.558;2022-08-07T12:02:12;6.70;;;0.93;;
3189;SDS011;1606;51.946;10.558;2022-08-07T12:04:59;5.93;;;1.10;;
3189;SDS011;1606;51.946;10.558;2022-08-07T12:07:44;6.53;;;0.80;;
3189;SDS011;1606;51.946;10.558;2022-08-07T12:10:30;5.80;;;0.90;;
3189;SDS011;1606;51.946;10.558;2022-08-07T12:13:40;5.73;;;1.03;;
3189;SDS011;1606;51.946;10.558;2022-08-07T12:16:15;6.20;;;0.87;;
3189;SDS011;1606;51.946;10.558;2022-08-07T12:18:56;5.30;;;0.73;;
3189;SDS011;1606;51.946;10.558;2022-08-07T12:21:34;5.00;;;0.93;;
3189;SDS011;1606;51.946;10.558;2022-08-07T12:24:36;5.70;;;0.97;;
3189;SDS011;1606;51.946;10.558;2022-08-07T12:27:34;4.77;;;0.87;;
3189;SDS011;1606;51.946;10.558;2022-08-07T12:30:27;5.40;;;0.90;;
3189;SDS011;1606;51.946;10.558;2022-08-07T12:32:59;5.60;;;0.97;;
3189;SDS011;1606;51.946;10.558;2022-08-07T12:35:49;6.70;;;0.90;;
3189;SDS011;1606;51.946;10.558;2022-08-07T12:38:23;6.33;;;1.00;;
3189;SDS011;1606;51.946;10.558;2022-08-07T12:41:05;5.83;;;0.93;;
3189;SDS011;1606;51.946;10.558;2022-08-07T12:43:35;5.50;;;0.83;;
3189;SDS011;1606;51.946;10.558;2022-08-07T12:46:31;5.67;;;0.80;;
3189;SDS011;1606;51.946;10.558;2022-08-07T12:49:19;4.80;;;0.70;;
3189;SDS011;1606;51.946;10.558;2022-08-07T12:52:11;6.30;;;1.10;;
3189;SDS011;1606;51.946;10.558;2022-08-07T12:54:46;5.43;;;0.67;;
3189;SDS011;1606;51.946;10.558;2022-08-07T12:57:30;4.80;;;1.00;;
3189;SDS011;1606;51.946;10.558;2022-08-07T13:00:19;5.00;;;0.90;;
3189;SDS011;1606;51.946;10.558;2022-08-07T13:03:06;5.30;;;1.10;;
3189;SDS011;1606;51.946;10.558;2022-08-07T13:06:06;4.70;;;0.70;;
3189;SDS011;1606;51.946;10.558;2022-08-07T13:08:55;5.10;;;0.93;;
3189;SDS011;1606;51.946;10.558;2022-08-07T13:11:49;5.30;;;1.00;;
3189;SDS011;1606;51.946;10.558;2022-08-07T13:14:45;5.10;;;1.00;;
3189;SDS011;1606;51.946;10.558;2022-08-07T13:17:26;4.83;;;0.87;;
3189;SDS011;1606;51.946;10.558;2022-08-07T13:20:08;5.30;;;0.80;;
3189;SDS011;1606;51.946;10.558;2022-08-07T13:22:48;6.00;;;0.90;;
3189;SDS011;1606;51.946;10.558;2022-08-07T13:25:23;6.50;;;0.90;;
3189;SDS011;1606;51.946;10.558;2022-08-07T13:27:57;4.80;;;0.80;;
3189;SDS011;1606;51.946;10.558;2022-08-07T13:30:41;4.80;;;0.80;;
3189;SDS011;1606;51.946;10.558;2022-08-07T13:33:21;5.67;;;0.70;;
3189;SDS011;1606;51.946;10.558;2022-08-07T13:36:15;7.60;;;0.90;;
3189;SDS011;1606;51.946;10.558;2022-08-07T13:38:55;5.70;;;1.10;;
3189;SDS011;1606;51.946;10.558;2022-08-07T13:41:38;6.17;;;1.00;;
3189;SDS011;1606;51.946;10.558;2022-08-07T13:44:13;7.73;;;1.00;;
3189;SDS011;1606;51.946;10.558;2022-08-07T13:46:55;7.70;;;0.80;;
3189;SDS011;1606;51.946;10.558;2022-08-07T13:49:25;5.20;;;0.83;;
3189;SDS011;1606;51.946;10.558;2022-08-07T13:52:18;8.60;;;0.90;;
3189;SDS011;1606;51.946;10.558;2022-08-07T13:55:00;4.87;;;0.70;;
3189;SDS011;1606;51.946;10.558;2022-08-07T13:57:38;5.13;;;1.00;;
3189;SDS011;1606;51.946;10.558;2022-08-07T14:00:29;5.07;;;0.80;;
3189;SDS011;1606;51.946;10.558;2022-08-07T14:03:22;5.77;;;0.90;;
3189;SDS011;1606;51.946;10.558;2022-08-07T14:05:55;5.00;;;0.80;;
3189;SDS011;1606;51.946;10.558;2022-08-07T14:08:26;5.13;;;0.73;;
3189;SDS011;1606;51.946;10.558;2022-08-07T14:10:54;5.40;;;1.13;;
3189;SDS011;1606;51.946;10.558;2022-08-07T14:13:40;5.00;;;0.80;;
3189;SDS011;1606;51.946;10.558;2022-08-07T14:16:13;6.17;;;1.17;;
3189;SDS011;1606;51.946;10.558;2022-08-07T14:18:52;8.70;;;1.10;;
3189;SDS011;1606;51.946;10.558;2022-08-07T14:21:23;6.53;;;0.90;;
3189;SDS011;1606;51.946;10.558;2022-08-07T14:24:14;5.00;;;0.93;;
3189;SDS011;1606;51.946;10.558;2022-08-07T14:26:51;5.60;;;0.70;;
3189;SDS011;1606;51.946;10.558;2022-08-07T14:29:23;6.30;;;0.90;;
3189;SDS011;1606;51.946;10.558;2022-08-07T14:32:13;6.23;;;0.90;;
3189;SDS011;1606;51.946;10.558;2022-08-07T14:34:46;5.67;;;1.10;;
3189;SDS011;1606;51.946;10.558;2022-08-07T14:37:17;5.60;;;0.93;;
3189;SDS011;1606;51.946;10.558;2022-08-07T14:40:04;5.47;;;0.73;;
3189;SDS011;1606;51.946;10.558;2022-08-07T14:42:45;4.60;;;0.73;;
3189;SDS011;1606;51.946;10.558;2022-08-07T14:45:41;7.53;;;1.33;;
3189;SDS011;1606;51.946;10.558;2022-08-07T14:48:15;4.90;;;0.70;;
3189;SDS011;1606;51.946;10.558;2022-08-07T14:51:06;6.00;;;0.80;;
3189;SDS011;1606;51.946;10.558;2022-08-07T14:53:42;4.93;;;0.70;;
3189;SDS011;1606;51.946;10.558;2022-08-07T14:56:31;5.00;;;0.90;;
3189;SDS011;1606;51.946;10.558;2022-08-07T14:59:05;4.80;;;1.10;;
3189;SDS011;1606;51.946;10.558;2022-08-07T15:01:56;5.20;;;1.03;;
3189;SDS011;1606;51.946;10.558;2022-08-07T15:04:54;4.63;;;0.67;;
3189;SDS011;1606;51.946;10.558;2022-08-07T15:07:28;5.10;;;0.70;;
3189;SDS011;1606;51.946;10.558;2022-08-07T15:10:18;5.03;;;0.80;;
3189;SDS011;1606;51.946;10.558;2022-08-07T15:12:52;5.20;;;0.80;;
3189;SDS011;1606;51.946;10.558;2022-08-07T15:15:24;5.90;;;1.00;;
3189;SDS011;1606;51.946;10.558;2022-08-07T15:18:06;5.70;;;0.93;;
3189;SDS011;1606;51.946;10.558;2022-08-07T15:20:56;4.83;;;0.70;;
3189;SDS011;1606;51.946;10.558;2022-08-07T15:23:35;6.67;;;1.07;;
3189;SDS011;1606;51.946;10.558;2022-08-07T15:26:31;5.00;;;0.80;;
3189;SDS011;1606;51.946;10.558;2022-08-07T15:29:05;5.30;;;0.80;;
3189;SDS011;1606;51.946;10.558;2022-08-07T15:31:55;5.60;;;0.70;;
3189;SDS011;1606;51.946;10.558;2022-08-07T15:34:32;4.73;;;0.80;;
3189;SDS011;1606;51.946;10.558;2022-08-07T15:37:16;5.93;;;0.80;;
3189;SDS011;1606;51.946;10.558;2022-08-07T15:39:56;6.20;;;0.80;;
3189;SDS011;1606;51.946;10.558;2022-08-07T15:42:36;5.60;;;1.00;;
3189;SDS011;1606;51.946;10.558;2022-08-07T15:45:24;4.83;;;0.70;;
3189;SDS011;1606;51.946;10.558;2022-08-07T15:48:17;5.27;;;1.10;;
3189;SDS011;1606;51.946;10.558;2022-08-07T15:50:51;5.40;;;1.00;;
3189;SDS011;1606;51.946;10.558;2022-08-07T15:53:34;5.47;;;0.60;;
3189;SDS011;1606;51.946;10.558;2022-08-07T15:56:20;6.77;;;1.07;;
3189;SDS011;1606;51.946;10.558;2022-08-07T15:58:59;5.93;;;1.20;;
3189;SDS011;1606;51.946;10.558;2022-08-07T16:01:32;5.40;;;0.85;;
3189;SDS011;1606;51.946;10.558;2022-08-07T16:04:05;4.90;;;1.00;;
3189;SDS011;1606;51.946;10.558;2022-08-07T16:06:41;4.83;;;0.83;;
3189;SDS011;1606;51.946;10.558;2022-08-07T16:09:17;5.53;;;1.03;;
3189;SDS011;1606;51.946;10.558;2022-08-07T16:12:12;5.10;;;0.80;;
3189;SDS011;1606;51.946;10.558;2022-08-07T16:15:05;5.40;;;1.10;;
3189;SDS011;1606;51.946;10.558;2022-08-07T16:18:10;9.53;;;1.10;;
3189;SDS011;1606;51.946;10.558;2022-08-07T16:21:05;5.20;;;1.10;;
3189;SDS011;1606;51.946;10.558;2022-08-07T16:23:58;4.80;;;0.70;;
3189;SDS011;1606;51.946;10.558;2022-08-07T16:26:38;5.10;;;0.80;;
3189;SDS011;1606;51.946;10.558;2022-08-07T16:29:28;4.90;;;0.80;;